Friday, September 21, 2018, 9:32 PM EDT
Back to Local

KLNS, Lancaster Airport

Location: Lititz, PA, United States Lat: 40.117
Local Time: 9:32 PM EDT ( 1:32 GMT) Lon: -76.3
Time Zone: US/Eastern Elev: 403 ft

Show me the last for .
Show Decoded

2018-09-21 20:53 METAR KLNS 220053Z 19005KT 10SM OVC016 23/20 A3003 RMK AO2 SLP167 T02280200 =
2018-09-21 19:53 METAR KLNS 212353Z 19007G14KT 10SM OVC016 23/20 A3001 RMK AO2 SLP160 T02280200
                 10228 20217 56012 =
2018-09-21 19:27 METAR KLNS 212327Z 21006KT 10SM OVC015 23/20 A3001 RMK AO2 T02280200 =
2018-09-21 18:53 METAR KLNS 212253Z 17008KT 10SM OVC014 22/20 A3001 RMK AO2 PRESFR SLP161
                 T02220200 =
2018-09-21 18:51 METAR KLNS 212251Z 18009KT 10SM OVC014 22/20 A3002 RMK AO2 =
2018-09-21 17:53 METAR KLNS 212153Z 20007KT 10SM OVC016 23/20 A3005 RMK AO2 SLP172 T02280200 =
2018-09-21 16:53 METAR KLNS 212053Z 17008KT 10SM OVC015 22/19 A3005 RMK AO2 SLP175 T02220194
                 58026 =
2018-09-21 15:53 METAR KLNS 211953Z 18010KT 10SM OVC015 22/19 A3009 RMK AO2 SLP185 T02170194 =
2018-09-21 14:53 METAR KLNS 211853Z 20012G18KT 10SM OVC017 22/19 A3011 RMK AO2 SLP194 T02220189 =
2018-09-21 13:53 METAR KLNS 211753Z 18008KT 10SM OVC019 22/20 A3013 RMK AO2 RAB22E48 SLP201 P0000
                 60000 T02220200 10228 20200 58019 =
2018-09-21 12:53 METAR KLNS 211653Z 17008KT 10SM OVC020 22/19 A3015 RMK AO2 SLP209 T02220189 =
2018-09-21 11:53 METAR KLNS 211553Z 17012KT 10SM BKN023 OVC028 22/19 A3018 RMK AO2 SLP216
                 T02220189 =
2018-09-21 11:35 METAR KLNS 211535Z 18010KT 10SM OVC023 22/19 A3018 RMK AO2 T02220189 =
2018-09-21 11:23 METAR KLNS 211523Z 18008KT 10SM BKN024 OVC029 22/18 A3019 RMK AO2 T02220183 =
2018-09-21 11:10 METAR KLNS 211510Z 18012G18KT 10SM SCT022 BKN029 OVC036 22/18 A3019 RMK AO2
                 T02220183 =
2018-09-21 11:02 METAR KLNS 211502Z 19010KT 10SM FEW022 SCT029 OVC036 23/19 A3019 RMK AO2
                 T02280189 =
2018-09-21 10:53 METAR KLNS 211453Z 19009KT 10SM OVC036 22/19 A3019 RMK AO2 SLP221 T02220189
                 58015 =
2018-09-21 09:53 METAR KLNS 211353Z VRB06KT 10SM SCT014 OVC031 22/19 A3020 RMK AO2 SLP226
                 T02170189 =
2018-09-21 09:08 METAR KLNS 211308Z 16005KT 10SM SCT015 OVC032 21/18 A3022 RMK AO2 T02060183 =
2018-09-21 08:53 METAR KLNS 211253Z 15006KT 10SM SCT015 BKN020 OVC032 21/18 A3022 RMK AO2 SLP231
                 T02060183 =
2018-09-21 07:53 METAR KLNS 211153Z 14005KT 10SM OVC015 20/18 A3023 RMK AO2 SLP236 T02000178
                 10200 20194 51005 =
2018-09-21 06:53 METAR KLNS 211053Z 15004KT 10SM OVC017 20/18 A3023 RMK AO2 SLP234 T02000178 =
2018-09-21 05:53 METAR KLNS 210953Z 17005KT 10SM OVC020 20/18 A3023 RMK AO2 SLP234 T02000178 =
2018-09-21 05:21 METAR KLNS 210921Z AUTO 16007KT 10SM BKN024 OVC032 20/18 A3022 RMK AO2 T02000178
                 =
2018-09-21 04:53 METAR KLNS 210853Z AUTO 15005KT 10SM FEW016 OVC032 20/18 A3022 RMK AO2 SLP231
                 T02000178 55002 =
2018-09-21 04:19 METAR KLNS 210819Z AUTO 18005KT 10SM FEW016 OVC031 20/18 A3022 RMK AO2 T02000178
                 =
2018-09-21 03:53 METAR KLNS 210753Z AUTO 17005KT 10SM OVC028 20/18 A3021 RMK AO2 SLP229 T02000178
                 =
2018-09-21 02:53 METAR KLNS 210653Z AUTO 15008KT 10SM BKN015 OVC027 20/18 A3022 RMK AO2 SLP230
                 T02000178 =
2018-09-21 01:53 METAR KLNS 210553Z AUTO 14007KT 10SM BKN014 OVC019 20/18 A3022 RMK AO2 SLP233
                 T02000178 10222 20200 50000 =
2018-09-21 00:53 METAR KLNS 210453Z AUTO 14007KT 10SM OVC014 20/18 A3023 RMK AO2 SLP235 T02000178
                 402560161 =
2018-09-21 00:13 METAR KLNS 210413Z AUTO 13006KT 10SM OVC014 21/18 A3023 RMK AO2 T02110178 =
2018-09-20 23:53 METAR KLNS 210353Z AUTO 15008KT 10SM OVC015 20/18 A3023 RMK AO2 SLP236 T02000178
                 =
2018-09-20 22:53 METAR KLNS 210253Z 15010KT 10SM FEW016 OVC025 21/18 A3022 RMK AO2 SLP232
                 T02060178 50006 =
2018-09-20 21:53 METAR KLNS 210153Z 16008KT 10SM BKN025 OVC040 21/18 A3022 RMK AO2 SLP233
                 T02110183 =
2018-09-20 21:41 METAR KLNS 210141Z 18007KT 10SM BKN026 OVC040 21/18 A3023 RMK AO2 T02110183 =

Support USWX by starting your Amazon purchase here.